createdAt,value
2022-08-14T06:44:48.253Z,10.80
2022-08-14T06:47:19.853Z,12.30
2022-08-14T06:49:58.262Z,12.10
2022-08-14T06:52:30.104Z,10.60
2022-08-14T06:55:01.908Z,10.20
2022-08-14T06:57:40.067Z,12.20
2022-08-14T07:00:22.270Z,11.60
2022-08-14T07:03:13.735Z,13.00
2022-08-14T07:05:55.293Z,12.70
2022-08-14T07:08:31.106Z,12.40
2022-08-14T07:11:04.451Z,11.80
2022-08-14T07:13:36.979Z,10.90
2022-08-14T07:18:40.701Z,10.60
2022-08-14T07:21:12.793Z,10.50
2022-08-14T07:23:45.160Z,10.90
2022-08-14T07:26:17.422Z,11.20
2022-08-14T07:28:48.914Z,12.10
2022-08-14T07:31:20.879Z,15.60
2022-08-14T07:33:53.294Z,15.70
2022-08-14T07:36:27.501Z,14.20
2022-08-14T07:39:02.917Z,14.20
2022-08-14T07:41:44.978Z,11.80
2022-08-14T07:44:28.729Z,12.70
2022-08-14T07:47:03.734Z,12.80
2022-08-14T07:49:35.705Z,12.90
2022-08-14T07:52:08.119Z,12.60
2022-08-14T07:54:39.954Z,13.10
2022-08-14T07:57:17.699Z,12.40
2022-08-14T07:59:56.740Z,10.20
2022-08-14T08:02:34.783Z,10.20
2022-08-14T08:05:07.092Z,7.60
2022-08-14T08:07:39.328Z,6.30
2022-08-14T08:10:46.219Z,7.40
2022-08-14T08:13:24.001Z,11.20
2022-08-14T08:15:57.485Z,6.80
2022-08-14T08:18:31.137Z,8.00
2022-08-14T08:21:02.819Z,6.90
2022-08-14T08:23:40.558Z,6.10
2022-08-14T08:26:15.675Z,5.70
2022-08-14T08:28:58.437Z,6.60
2022-08-14T08:31:32.715Z,5.50
2022-08-14T08:34:14.366Z,6.50
2022-08-14T08:36:50.084Z,6.50
2022-08-14T08:39:22.703Z,5.70
2022-08-14T08:41:54.783Z,6.50
2022-08-14T08:44:34.550Z,6.00
2022-08-14T08:47:08.176Z,5.20
2022-08-14T08:49:52.905Z,5.90
2022-08-14T08:52:32.374Z,6.20
2022-08-14T08:55:04.859Z,6.60
2022-08-14T08:57:38.662Z,5.90
2022-08-14T09:00:25.535Z,6.20
2022-08-14T09:03:04.170Z,6.10
2022-08-14T09:05:37.397Z,5.30
2022-08-14T09:08:30.812Z,5.30
2022-08-14T09:11:19.513Z,5.20
2022-08-14T09:13:54.784Z,9.00
2022-08-14T09:16:27.069Z,7.00
2022-08-14T09:18:58.721Z,7.10
2022-08-14T09:21:31.901Z,7.80
2022-08-14T09:24:29.134Z,6.30
2022-08-14T09:26:56.212Z,8.70
2022-08-14T09:29:28.741Z,6.70
2022-08-14T09:32:02.595Z,5.70
2022-08-14T09:34:58.989Z,5.40
2022-08-14T09:37:46.189Z,5.90
2022-08-14T09:40:22.936Z,6.00
2022-08-14T09:43:05.303Z,5.50
2022-08-14T09:45:53.621Z,6.20
2022-08-14T09:48:30.001Z,5.70
2022-08-14T09:54:19.308Z,7.90
2022-08-14T09:56:56.491Z,7.10
2022-08-14T09:59:32.314Z,5.90
2022-08-14T10:02:18.770Z,6.10
2022-08-14T10:05:02.577Z,6.40
2022-08-14T10:07:36.295Z,6.70
2022-08-14T10:10:24.168Z,7.90
2022-08-14T10:12:59.441Z,7.00
2022-08-14T10:15:32.558Z,6.30
2022-08-14T10:18:17.219Z,5.90
2022-08-14T10:20:58.070Z,5.90
2022-08-14T10:23:35.102Z,6.10
2022-08-14T10:26:09.860Z,6.20
2022-08-14T10:29:17.840Z,7.30
2022-08-14T10:31:46.314Z,6.60
2022-08-14T10:34:29.184Z,6.50
2022-08-14T10:37:14.395Z,6.90
2022-08-14T10:40:02.173Z,6.40
2022-08-14T10:42:40.417Z,6.90
2022-08-14T10:45:22.155Z,6.60
2022-08-14T10:48:07.973Z,6.80
2022-08-14T10:50:51.685Z,8.10
2022-08-14T10:53:39.265Z,8.50
2022-08-14T10:56:21.386Z,8.80
2022-08-14T10:59:08.172Z,8.20
2022-08-14T11:01:42.507Z,7.60
2022-08-14T11:04:30.236Z,8.20
2022-08-14T11:07:02.914Z,6.40
2022-08-14T11:09:41.858Z,6.10
2022-08-14T11:12:44.092Z,6.50
2022-08-14T11:15:05.680Z,5.90
2022-08-14T11:17:37.861Z,6.10
2022-08-14T11:20:15.975Z,6.90
2022-08-14T11:22:56.510Z,5.90
2022-08-14T11:25:44.119Z,5.80
2022-08-14T11:28:47.928Z,6.40
2022-08-14T11:31:17.805Z,6.70
2022-08-14T11:33:52.105Z,5.70
2022-08-14T11:36:56.852Z,6.50
2022-08-14T11:39:34.636Z,5.70
2022-08-14T11:42:57.282Z,6.10
2022-08-14T11:45:11.380Z,5.90
2022-08-14T11:48:12.860Z,5.80
2022-08-14T11:50:40.785Z,5.70
2022-08-14T11:53:26.104Z,5.80
2022-08-14T11:56:05.503Z,6.10
2022-08-14T11:58:38.888Z,5.30
2022-08-14T12:01:10.758Z,6.40
2022-08-14T12:03:51.217Z,6.00
2022-08-14T12:06:28.538Z,5.60
2022-08-14T12:09:08.538Z,5.80
2022-08-14T12:11:47.513Z,5.70
2022-08-14T12:14:34.719Z,6.00
2022-08-14T12:17:11.968Z,5.60
2022-08-14T12:19:51.263Z,5.20
2022-08-14T12:22:40.301Z,5.50
2022-08-14T12:25:15.663Z,5.40
2022-08-14T12:27:53.311Z,5.50
2022-08-14T12:30:42.689Z,5.60
2022-08-14T12:33:31.021Z,5.50
2022-08-14T12:36:06.260Z,5.00
2022-08-14T12:38:44.002Z,7.00
2022-08-14T12:41:21.276Z,7.60
2022-08-14T12:43:55.683Z,8.40
2022-08-14T12:46:29.643Z,7.70
2022-08-14T12:49:05.344Z,6.80
2022-08-14T12:51:37.144Z,6.90
2022-08-14T12:54:27.223Z,7.50
2022-08-14T12:57:08.371Z,7.20
2022-08-14T12:59:42.603Z,7.50
2022-08-14T13:02:25.681Z,7.90
2022-08-14T13:04:59.338Z,7.70
2022-08-14T13:07:33.189Z,7.30
2022-08-14T13:10:46.224Z,7.80
2022-08-14T13:13:16.110Z,8.00
2022-08-14T13:15:48.645Z,8.10
2022-08-14T13:18:29.498Z,8.40
2022-08-14T13:21:02.296Z,7.30
2022-08-14T13:23:37.424Z,7.00
2022-08-14T13:26:10.114Z,7.50
2022-08-14T13:29:02.057Z,8.10
2022-08-14T13:31:37.347Z,7.60
2022-08-14T13:34:08.975Z,7.20
2022-08-14T13:36:54.969Z,8.60
2022-08-14T13:39:36.427Z,7.20
2022-08-14T13:42:13.765Z,7.70
2022-08-14T13:44:45.589Z,7.80
2022-08-14T13:47:19.897Z,7.30
2022-08-14T13:49:57.538Z,7.40
2022-08-14T13:52:52.450Z,6.60
2022-08-14T13:55:24.343Z,7.00
2022-08-14T13:58:04.614Z,8.00
2022-08-14T14:00:53.082Z,7.40
2022-08-14T14:03:30.173Z,7.50
2022-08-14T14:06:04.051Z,8.10
2022-08-14T14:08:43.154Z,7.10
2022-08-14T14:11:24.358Z,7.60
2022-08-14T14:13:58.098Z,7.40
2022-08-14T14:16:31.269Z,6.80
2022-08-14T14:19:09.845Z,6.90
2022-08-14T14:21:42.205Z,7.20
2022-08-14T14:24:15.520Z,7.20
2022-08-14T14:26:50.279Z,7.40
2022-08-14T14:29:24.239Z,7.60
2022-08-14T14:31:58.646Z,7.30
2022-08-14T14:34:34.588Z,7.20
2022-08-14T14:37:07.366Z,6.60
2022-08-14T14:40:50.704Z,6.60
2022-08-14T14:42:35.349Z,8.50
2022-08-14T14:45:15.527Z,8.20
2022-08-14T14:47:48.968Z,8.60
2022-08-14T14:50:21.506Z,7.60
2022-08-14T14:53:12.298Z,7.70
2022-08-14T14:56:51.277Z,8.00
2022-08-14T14:58:37.200Z,13.00
2022-08-14T15:01:10.539Z,10.90
2022-08-14T15:03:44.376Z,9.90
2022-08-14T15:06:17.562Z,11.30
2022-08-14T15:08:56.921Z,10.00
2022-08-14T15:14:53.910Z,10.40
2022-08-14T15:20:32.999Z,16.20
2022-08-14T15:23:12.388Z,17.70
2022-08-14T15:25:52.949Z,16.20
2022-08-14T15:28:24.943Z,15.30
2022-08-14T15:30:58.978Z,14.40
2022-08-14T15:34:33.986Z,12.50
2022-08-14T15:36:40.179Z,11.70
2022-08-14T15:39:14.377Z,12.30
2022-08-14T15:41:49.165Z,10.40
2022-08-14T15:44:25.817Z,9.50
2022-08-14T15:46:59.880Z,8.30
2022-08-14T15:49:34.501Z,7.60
2022-08-14T15:52:07.731Z,7.30
2022-08-14T15:54:39.625Z,7.80
2022-08-14T15:57:13.060Z,6.40
2022-08-14T16:00:02.449Z,7.20
2022-08-14T16:05:38.262Z,6.70
2022-08-14T16:08:27.282Z,6.30
2022-08-14T16:11:03.783Z,6.30
2022-08-14T16:13:39.641Z,6.50
2022-08-14T16:16:49.097Z,6.00
2022-08-14T16:19:10.196Z,5.70
2022-08-14T16:22:01.446Z,5.30
2022-08-14T16:25:02.314Z,5.40
2022-08-14T16:27:38.744Z,4.80
2022-08-14T16:30:25.062Z,4.80
2022-08-14T16:33:01.000Z,5.30
2022-08-14T16:35:42.575Z,4.90
2022-08-14T16:38:45.715Z,5.10
2022-08-14T16:41:22.883Z,5.10
2022-08-14T16:43:59.152Z,5.40
2022-08-14T16:46:35.326Z,5.10
2022-08-14T16:49:07.611Z,5.50
2022-08-14T16:51:39.888Z,5.40
2022-08-14T16:54:33.884Z,5.00
2022-08-14T16:57:20.963Z,4.70
2022-08-14T16:59:57.827Z,4.70
2022-08-14T17:02:39.830Z,4.70
2022-08-14T17:05:29.235Z,4.20
2022-08-14T17:08:31.781Z,3.70
2022-08-14T17:11:10.742Z,3.90
2022-08-14T17:13:58.337Z,3.80
2022-08-14T17:16:37.809Z,4.00
2022-08-14T17:19:14.256Z,3.80
2022-08-14T17:21:50.371Z,3.20
2022-08-14T17:24:55.851Z,3.80
2022-08-14T17:27:18.592Z,3.40
2022-08-14T17:29:57.600Z,3.50
2022-08-14T17:32:56.686Z,3.30
2022-08-14T17:35:57.306Z,3.40
2022-08-14T17:38:38.578Z,4.10
2022-08-14T17:41:32.771Z,3.80
2022-08-14T17:44:34.252Z,3.70
2022-08-14T17:47:14.808Z,3.80
2022-08-14T17:49:52.887Z,4.10
2022-08-14T17:52:34.474Z,4.00
2022-08-14T17:55:07.898Z,4.40
2022-08-14T17:57:42.956Z,4.40
2022-08-14T18:00:16.678Z,4.10
2022-08-14T18:03:44.551Z,5.10
2022-08-14T18:06:39.341Z,3.80
2022-08-14T18:09:01.699Z,4.40
2022-08-14T18:11:46.494Z,4.40
2022-08-14T18:14:31.478Z,4.70
2022-08-14T18:17:05.065Z,4.40
2022-08-14T18:19:38.166Z,3.70
2022-08-14T18:22:31.883Z,4.30
2022-08-14T18:25:05.230Z,4.70
2022-08-14T18:27:51.848Z,4.70
2022-08-14T18:30:33.282Z,3.80
2022-08-14T18:33:22.765Z,4.10
2022-08-14T18:35:59.146Z,4.20
2022-08-14T18:38:46.267Z,4.30
2022-08-14T18:41:36.848Z,3.90
2022-08-14T18:44:11.343Z,3.60
2022-08-14T18:47:15.901Z,4.70
2022-08-14T18:50:26.911Z,4.40
2022-08-14T18:53:04.509Z,5.10
2022-08-14T18:55:53.928Z,4.40
2022-08-14T18:58:31.577Z,4.90
2022-08-14T19:01:06.411Z,5.10
2022-08-14T19:04:00.198Z,4.30
2022-08-14T19:06:55.855Z,5.50
2022-08-14T19:09:56.381Z,4.70
2022-08-14T19:15:26.069Z,5.40
2022-08-14T19:18:14.791Z,5.80
2022-08-14T19:20:53.325Z,5.80
2022-08-14T19:23:44.278Z,5.20
2022-08-14T19:26:37.047Z,6.00
2022-08-14T19:29:38.034Z,4.60
2022-08-14T19:32:40.322Z,5.40
2022-08-14T19:35:49.865Z,5.30
2022-08-14T19:38:57.707Z,5.80
2022-08-14T19:41:33.975Z,5.60
2022-08-14T19:44:14.780Z,5.10
2022-08-14T19:47:00.428Z,5.80
2022-08-14T19:50:24.698Z,4.90
2022-08-14T19:52:37.084Z,5.00
2022-08-14T19:55:19.444Z,5.10
2022-08-14T19:57:58.663Z,4.50
2022-08-14T20:00:30.843Z,4.80
2022-08-14T20:03:10.585Z,4.70
2022-08-14T20:05:46.151Z,4.90
2022-08-14T20:09:05.936Z,4.50
2022-08-14T20:12:02.181Z,4.80
2022-08-14T20:14:20.915Z,5.80
2022-08-14T20:17:07.008Z,4.80
2022-08-14T20:19:41.483Z,4.90
2022-08-14T20:22:36.995Z,4.60
2022-08-14T20:25:16.448Z,3.90
2022-08-14T20:27:58.470Z,4.40
2022-08-14T20:30:34.089Z,4.70
2022-08-14T20:33:11.087Z,4.70
2022-08-14T20:35:49.480Z,4.80
2022-08-14T20:38:30.715Z,4.50
2022-08-14T20:41:06.621Z,4.40
2022-08-14T20:44:02.707Z,4.70
2022-08-14T20:46:39.506Z,4.70
2022-08-14T20:49:16.299Z,4.40
2022-08-14T20:51:58.438Z,4.90
2022-08-14T20:54:34.391Z,4.90
2022-08-14T20:57:13.835Z,4.70
2022-08-14T20:59:47.184Z,4.60
2022-08-14T21:02:38.762Z,5.00
2022-08-14T21:05:33.962Z,5.50
2022-08-14T21:08:08.471Z,4.80
2022-08-14T21:10:56.687Z,4.80
2022-08-14T21:14:19.617Z,4.70
2022-08-14T21:16:34.409Z,4.90
2022-08-14T21:19:08.494Z,4.50
2022-08-14T21:21:42.562Z,4.90
2022-08-14T21:24:39.988Z,4.60
2022-08-14T21:27:19.715Z,4.40
2022-08-14T21:29:55.932Z,4.40
2022-08-14T21:32:50.364Z,5.30
2022-08-14T21:35:28.927Z,4.60
2022-08-14T21:38:00.588Z,4.70
2022-08-14T21:40:41.968Z,4.80
2022-08-14T21:43:18.114Z,5.20
2022-08-14T21:45:53.985Z,4.90
2022-08-14T21:48:29.317Z,4.70
2022-08-14T21:51:54.873Z,5.40
2022-08-14T21:54:00.378Z,4.50
2022-08-14T21:56:38.820Z,4.90
2022-08-14T21:59:17.993Z,4.90
2022-08-14T22:02:01.246Z,5.70
2022-08-14T22:04:40.576Z,5.10
2022-08-14T22:07:17.383Z,5.40
2022-08-14T22:09:55.465Z,4.90
2022-08-14T22:12:57.403Z,5.30
2022-08-14T22:17:52.413Z,4.90
2022-08-14T22:20:28.432Z,4.80
2022-08-14T22:23:03.132Z,5.10
2022-08-14T22:25:41.092Z,5.30
2022-08-14T22:28:15.839Z,5.30
2022-08-14T22:30:47.437Z,5.00
2022-08-14T22:33:31.227Z,5.20
2022-08-14T22:36:25.223Z,5.00
2022-08-14T22:38:57.659Z,5.40
2022-08-14T22:41:35.285Z,5.40
2022-08-14T22:44:15.854Z,5.60
2022-08-14T22:46:47.853Z,5.80
2022-08-14T22:50:29.182Z,5.40
2022-08-14T22:52:31.698Z,4.80
2022-08-14T22:55:05.956Z,5.70
2022-08-14T22:57:42.079Z,5.70
2022-08-14T23:00:25.603Z,5.60
2022-08-14T23:03:03.060Z,5.30
2022-08-14T23:05:39.676Z,6.00
2022-08-14T23:08:59.423Z,4.90
2022-08-14T23:13:36.295Z,5.90
2022-08-14T23:16:10.901Z,6.00
2022-08-14T23:18:53.974Z,5.30
2022-08-14T23:21:28.737Z,4.90
2022-08-14T23:24:00.491Z,5.90
2022-08-14T23:26:48.968Z,5.40
2022-08-14T23:29:21.714Z,5.00
2022-08-14T23:31:53.277Z,5.60
2022-08-14T23:36:58.054Z,5.80
2022-08-14T23:39:32.987Z,5.30
2022-08-14T23:42:09.396Z,5.10
2022-08-14T23:44:45.930Z,5.20
2022-08-14T23:47:26.292Z,5.50
2022-08-14T23:50:03.376Z,5.70
2022-08-14T23:53:06.244Z,5.20
2022-08-14T23:55:32.699Z,5.00
2022-08-14T23:58:04.219Z,5.10
